Time;durP1;ratioP1;P1;durP2;ratioP2;P2;SDS_P1;SDS_P2;PMS_P1;PMS_P2;Temp;Humidity;BMP_temperature;BMP_pressure;BME280_temperature;BME280_humidity;BME280_pressure;Samples;Min_cycle;Max_cycle;Signal;HPM_P1;HPM_P2
2021/09/26 00:01:37;;;;;;;34.72;25.17;;;;;;;15.12;63.40;95625.06;4947552;23;20131;-81
2021/09/26 00:04:03;;;;;;;36.90;29.80;;;;;;;15.10;63.98;95627.13;4910752;29;20527;-81
2021/09/26 00:06:29;;;;;;;30.48;21.25;;;;;;;15.05;63.93;95613.97;4908011;29;20067;-80
2021/09/26 00:08:55;;;;;;;27.42;20.70;;;;;;;15.06;63.69;95620.78;4927916;29;20058;-79
2021/09/26 00:11:21;;;;;;;24.70;16.52;;;;;;;15.04;63.57;95622.06;4928807;29;20032;-79
2021/09/26 00:13:46;;;;;;;19.48;13.80;;;;;;;14.99;64.00;95620.97;4920341;29;20413;-80
2021/09/26 00:16:12;;;;;;;21.33;13.40;;;;;;;14.98;63.78;95622.00;4910744;29;20039;-80
2021/09/26 00:18:37;;;;;;;19.38;13.50;;;;;;;14.95;64.42;95622.47;4921821;29;20048;-80
2021/09/26 00:21:03;;;;;;;26.15;16.23;;;;;;;14.94;63.92;95617.47;4924188;29;20041;-81
2021/09/26 00:23:28;;;;;;;23.27;16.65;;;;;;;14.89;64.70;95610.34;4910481;29;20035;-80
2021/09/26 00:25:54;;;;;;;20.00;14.13;;;;;;;14.88;64.78;95615.81;4909527;29;20047;-81
2021/09/26 00:28:36;;;;;;;22.10;11.18;;;;;;;14.89;64.84;95614.78;4916423;29;20488;-80
2021/09/26 00:31:03;;;;;;;16.08;10.70;;;;;;;14.91;64.88;95615.31;4916842;29;20048;-81
2021/09/26 00:33:28;;;;;;;15.57;9.52;;;;;;;14.97;64.81;95617.00;4909864;29;20036;-81
2021/09/26 00:35:54;;;;;;;18.30;8.70;;;;;;;14.99;64.67;95620.97;4912609;29;20033;-81
2021/09/26 00:38:19;;;;;;;16.02;10.60;;;;;;;14.99;64.25;95620.97;4910061;29;20033;-81
2021/09/26 00:40:46;;;;;;;20.60;10.35;;;;;;;14.98;64.23;95623.84;4907734;29;20058;-80
2021/09/26 00:43:12;;;;;;;15.60;9.48;;;;;;;14.94;64.34;95613.03;4909539;29;20039;-81
2021/09/26 00:45:37;;;;;;;11.48;8.00;;;;;;;14.94;64.51;95613.03;4908579;29;20056;-80
2021/09/26 00:48:03;;;;;;;15.85;9.20;;;;;;;14.90;64.04;95613.75;4908798;29;20075;-81
2021/09/26 00:50:28;;;;;;;13.85;9.05;;;;;;;14.86;64.28;95610.81;4911166;29;20045;-81
2021/09/26 00:52:54;;;;;;;14.55;8.15;;;;;;;14.84;64.15;95618.13;4909851;29;20080;-80
2021/09/26 00:55:19;;;;;;;14.32;8.32;;;;;;;14.79;64.41;95614.59;4906353;29;20543;-80
2021/09/26 00:57:45;;;;;;;15.15;7.28;;;;;;;14.76;64.50;95620.31;4916492;29;20079;-81
2021/09/26 01:00:12;;;;;;;16.50;8.20;;;;;;;14.73;64.65;95621.59;4906454;29;20036;-81
2021/09/26 01:02:38;;;;;;;13.48;8.35;;;;;;;14.72;64.23;95617.41;4892536;29;20029;-81
2021/09/26 01:05:04;;;;;;;10.35;7.68;;;;;;;14.68;64.87;95622.31;4917511;29;20084;-80
2021/09/26 01:07:34;;;;;;;18.00;7.85;;;;;;;14.64;65.01;95617.78;4893753;29;20075;-81
2021/09/26 01:10:26;;;;;;;10.52;8.15;;;;;;;14.63;64.89;95613.56;4934592;29;20036;-81
2021/09/26 01:13:19;;;;;;;11.23;8.10;;;;;;;14.63;65.19;95616.19;4916562;29;20044;-80
2021/09/26 01:16:05;;;;;;;10.27;7.38;;;;;;;14.59;65.18;95617.69;4910498;29;20055;-81
2021/09/26 01:18:53;;;;;;;13.85;7.68;;;;;;;14.55;65.57;95619.22;4892514;29;20217;-81
2021/09/26 01:21:45;;;;;;;14.88;8.05;;;;;;;14.53;65.60;95621.28;4909365;29;20025;-80
2021/09/26 01:24:19;;;;;;;10.23;8.02;;;;;;;14.51;65.25;95628.56;4908916;29;20044;-81
2021/09/26 01:27:00;;;;;;;12.98;8.63;;;;;;;14.46;66.00;95631.06;4906891;29;20059;-81
2021/09/26 01:29:51;;;;;;;11.73;7.85;;;;;;;14.44;66.27;95620.06;4910973;29;20051;-81
2021/09/26 01:32:17;;;;;;;13.60;8.02;;;;;;;14.40;65.84;95628.34;4907443;29;20020;-80
2021/09/26 01:34:47;;;;;;;10.80;8.13;;;;;;;14.39;65.99;95621.53;4893870;29;20036;-81
2021/09/26 01:37:30;;;;;;;14.27;7.95;;;;;;;14.39;66.19;95623.34;4877186;29;20063;-80
2021/09/26 01:40:05;;;;;;;10.15;7.35;;;;;;;14.35;66.15;95625.66;4929474;29;20051;-80
2021/09/26 01:42:39;;;;;;;13.55;7.88;;;;;;;14.32;66.00;95618.28;4905206;29;20493;-80
2021/09/26 01:45:05;;;;;;;9.45;7.82;;;;;;;14.29;66.00;95621.34;4916291;29;20115;-79
2021/09/26 01:47:34;;;;;;;15.45;7.22;;;;;;;14.24;65.93;95621.25;4910038;29;20115;-81
2021/09/26 01:50:01;;;;;;;8.23;7.30;;;;;;;14.20;66.04;95616.75;4908345;29;20077;-81
2021/09/26 01:52:29;;;;;;;11.25;7.60;;;;;;;14.16;66.46;95616.41;4907708;29;20526;-81
2021/09/26 01:54:55;;;;;;;17.58;7.63;;;;;;;14.15;66.73;95620.03;4894269;29;20060;-80
2021/09/26 01:57:21;;;;;;;11.38;7.50;;;;;;;14.15;66.63;95619.25;4910919;29;20027;-80
2021/09/26 01:59:50;;;;;;;9.43;7.20;;;;;;;14.11;66.62;95624.94;4915971;29;20416;-81
2021/09/26 02:02:19;;;;;;;11.82;6.82;;;;;;;14.08;66.88;95619.41;4913838;29;20043;-80
2021/09/26 02:04:59;;;;;;;15.88;7.38;;;;;;;14.06;66.74;95626.69;4893973;29;20100;-80
2021/09/26 02:07:27;;;;;;;14.95;7.35;;;;;;;14.03;66.86;95620.09;4907118;29;20503;-80
2021/09/26 02:09:53;;;;;;;13.95;7.18;;;;;;;14.01;66.90;95621.38;4907545;29;20489;-80
2021/09/26 02:12:18;;;;;;;14.43;7.32;;;;;;;13.97;66.83;95623.63;4907058;29;20079;-81
2021/09/26 02:14:44;;;;;;;14.32;7.70;;;;;;;13.94;66.98;95624.09;4907589;29;20055;-80
2021/09/26 02:17:09;;;;;;;10.27;6.63;;;;;;;13.91;67.01;95624.56;4915019;29;20044;-80
2021/09/26 02:19:35;;;;;;;18.58;7.60;;;;;;;13.88;66.96;95625.03;4915051;29;20043;-80
2021/09/26 02:22:02;;;;;;;14.07;7.30;;;;;;;13.86;67.00;95621.06;5042436;23;20048;-80
2021/09/26 02:24:27;;;;;;;10.43;7.43;;;;;;;13.81;67.42;95630.38;4918156;29;20038;-79
2021/09/26 02:26:53;;;;;;;15.32;7.25;;;;;;;13.78;67.37;95625.63;4915838;29;20036;-80
2021/09/26 02:29:18;;;;;;;13.43;7.20;;;;;;;13.81;67.88;95629.59;4916243;29;20413;-80
2021/09/26 02:31:44;;;;;;;10.95;6.70;;;;;;;13.81;67.61;95624.38;4916498;29;20044;-79
2021/09/26 02:34:09;;;;;;;21.45;7.30;;;;;;;13.84;67.44;95633.59;4916569;29;20083;-80
2021/09/26 02:36:34;;;;;;;13.55;6.82;;;;;;;13.80;67.14;95628.78;4917300;29;20513;-80
2021/09/26 02:39:02;;;;;;;9.35;7.38;;;;;;;13.79;67.44;95632.44;4915434;29;20422;-80
2021/09/26 02:41:46;;;;;;;10.55;6.57;;;;;;;13.79;67.52;95632.44;4920681;23;20220;-80
2021/09/26 02:44:35;;;;;;;13.45;6.93;;;;;;;13.77;67.19;95646.78;4902150;29;20040;-80
2021/09/26 02:47:05;;;;;;;16.38;7.00;;;;;;;13.76;67.18;95645.19;4918786;29;20036;-81
2021/09/26 02:49:34;;;;;;;16.45;7.47;;;;;;;13.74;67.24;95640.19;4903383;29;20036;-81
2021/09/26 02:52:00;;;;;;;16.05;7.75;;;;;;;13.71;67.29;95639.88;4954043;23;20079;-80
2021/09/26 02:54:25;;;;;;;16.63;7.63;;;;;;;13.66;67.00;95648.38;4937016;29;20040;-80
2021/09/26 02:56:51;;;;;;;13.18;7.22;;;;;;;13.66;67.25;95647.59;4921109;29;20495;-80
2021/09/26 02:59:17;;;;;;;12.88;7.68;;;;;;;13.64;66.79;95655.66;4908626;29;20128;-81
2021/09/26 03:01:49;;;;;;;15.73;7.80;;;;;;;13.59;67.43;95646.91;4923379;29;20416;-80
2021/09/26 03:04:15;;;;;;;16.10;8.18;;;;;;;13.57;67.33;95644.53;4894686;29;20060;-80
2021/09/26 03:06:41;;;;;;;22.92;8.50;;;;;;;13.57;67.19;95644.53;4900445;29;20028;-80
2021/09/26 03:09:06;;;;;;;17.83;8.25;;;;;;;13.58;66.81;95650.56;4917037;29;20039;-80
2021/09/26 03:11:32;;;;;;;20.73;8.20;;;;;;;13.49;67.41;95643.06;4915319;29;20037;-79
2021/09/26 03:13:57;;;;;;;24.70;11.48;;;;;;;13.50;67.55;95649.06;4899927;29;20048;-80
2021/09/26 03:16:22;;;;;;;29.92;16.38;;;;;;;13.51;67.38;95650.69;4916651;29;20088;-79
2021/09/26 03:18:48;;;;;;;39.60;22.75;;;;;;;13.51;67.20;95645.47;4917026;29;20069;-79
2021/09/26 03:21:14;;;;;;;63.78;39.35;;;;;;;13.47;67.36;95647.72;4916919;29;20047;-79
2021/09/26 03:23:53;;;;;;;78.53;49.38;;;;;;;13.46;67.42;95642.72;4919908;29;20055;-79
2021/09/26 03:28:59;;;;;;;71.90;39.22;;;;;;;13.44;67.59;95634.31;4899106;29;20048;-80
2021/09/26 03:31:24;;;;;;;65.78;36.50;;;;;;;13.44;67.52;95637.72;4912723;29;20039;-80
2021/09/26 03:33:53;;;;;;;63.28;34.88;;;;;;;13.39;67.27;95631.63;4920030;29;20107;-80
2021/09/26 03:36:21;;;;;;;63.58;29.73;;;;;;;13.42;67.34;95631.94;4946159;23;20099;-80
2021/09/26 03:38:47;;;;;;;59.72;26.15;;;;;;;13.42;67.26;95642.41;4928773;29;20043;-80
2021/09/26 03:41:13;;;;;;;39.20;19.30;;;;;;;13.41;67.26;95640.81;4921407;29;20059;-80
2021/09/26 03:43:38;;;;;;;26.67;14.75;;;;;;;13.37;67.08;95644.91;4894435;29;20618;-81
2021/09/26 03:48:53;;;;;;;27.08;12.95;;;;;;;13.37;67.04;95642.31;5141351;23;20560;-80
2021/09/26 03:51:18;;;;;;;22.38;11.98;;;;;;;13.32;67.14;95642.16;4910079;29;20041;-80
2021/09/26 03:53:44;;;;;;;23.88;12.43;;;;;;;13.35;67.33;95638.31;4900498;29;20032;-80
2021/09/26 03:56:10;;;;;;;22.77;11.40;;;;;;;13.31;67.19;95634.56;4884333;29;20501;-80
2021/09/26 03:59:08;;;;;;;28.15;11.68;;;;;;;13.31;67.48;95643.19;4899339;29;20123;-80
2021/09/26 04:01:34;;;;;;;27.80;10.73;;;;;;;13.28;67.50;95651.50;4889944;29;20088;-80
2021/09/26 04:03:59;;;;;;;21.80;11.70;;;;;;;13.23;67.41;95643.56;4902649;29;20032;-81
2021/09/26 04:06:25;;;;;;;17.70;11.32;;;;;;;13.20;67.88;95652.63;4901124;29;20063;-80
2021/09/26 04:08:50;;;;;;;25.73;13.50;;;;;;;13.14;67.61;95650.88;4899511;29;20112;-80
2021/09/26 04:11:15;;;;;;;16.90;11.45;;;;;;;13.15;68.00;95657.69;4900746;29;20036;-80
2021/09/26 04:13:51;;;;;;;23.38;11.90;;;;;;;13.14;67.77;95656.09;4901240;29;20037;-80
2021/09/26 04:16:17;;;;;;;16.85;11.20;;;;;;;13.11;67.66;95661.78;4964086;23;20040;-78
2021/09/26 04:18:48;;;;;;;24.60;11.27;;;;;;;13.13;67.93;95651.91;4929590;29;20065;-79
2021/09/26 04:21:17;;;;;;;21.93;11.17;;;;;;;13.11;67.92;95664.41;4929108;29;20088;-79
2021/09/26 04:23:44;;;;;;;21.33;10.63;;;;;;;13.12;68.05;95652.94;4920221;29;20283;-80
2021/09/26 04:26:09;;;;;;;19.60;10.98;;;;;;;13.17;68.38;95655.66;5030670;23;20047;-79
2021/09/26 04:28:35;;;;;;;36.13;11.52;;;;;;;13.26;67.90;95647.53;4922355;29;20040;-78
2021/09/26 04:31:00;;;;;;;27.13;10.13;;;;;;;13.39;67.83;95652.50;4922486;29;20069;-80
2021/09/26 04:33:25;;;;;;;24.38;10.40;;;;;;;13.58;67.18;95651.34;4920057;29;20032;-80
2021/09/26 04:35:51;;;;;;;26.77;8.52;;;;;;;13.78;66.64;95656.19;4919310;29;20484;-79
2021/09/26 04:38:16;;;;;;;15.82;9.23;;;;;;;14.00;65.91;95654.56;4917526;29;20480;-80
2021/09/26 04:40:42;;;;;;;17.08;9.02;;;;;;;14.25;65.27;95651.63;4920144;29;20059;-80
2021/09/26 04:43:07;;;;;;;27.15;10.68;;;;;;;14.51;64.11;95662.59;4919776;29;20487;-80
2021/09/26 04:45:33;;;;;;;33.70;10.32;;;;;;;14.81;63.03;95659.69;4919269;29;20032;-80
2021/09/26 04:47:58;;;;;;;23.70;10.15;;;;;;;15.17;61.83;95669.69;4919915;29;20485;-80
2021/09/26 04:50:24;;;;;;;38.97;12.18;;;;;;;15.71;60.12;95669.16;4919348;29;20044;-80
2021/09/26 04:53:27;;;;;;;29.83;13.32;;;;;;;16.41;57.72;95671.03;4918478;29;20040;-80
2021/09/26 04:55:52;;;;;;;33.97;12.73;;;;;;;17.46;54.67;95664.31;4974874;23;20074;-80
2021/09/26 04:58:18;;;;;;;35.85;13.68;;;;;;;18.37;51.47;95656.03;4946262;29;20031;-81
2021/09/26 05:00:46;;;;;;;43.53;15.98;;;;;;;19.21;48.86;95654.84;4943682;28;20043;-81
2021/09/26 05:03:12;;;;;;;49.15;15.55;;;;;;;19.89;46.87;95647.34;4928923;29;20110;-81
2021/09/26 05:05:37;;;;;;;54.22;18.42;;;;;;;20.12;46.50;95655.69;4927023;29;20092;-81
2021/09/26 05:08:03;;;;;;;62.88;21.40;;;;;;;20.16;46.15;95657.50;4929801;29;20031;-81
2021/09/26 05:10:29;;;;;;;65.05;24.88;;;;;;;20.38;45.28;95665.06;4943455;29;20051;-80
2021/09/26 05:12:54;;;;;;;55.83;23.27;;;;;;;20.56;45.13;95666.31;4911435;29;20172;-81
2021/09/26 05:15:20;;;;;;;65.55;24.90;;;;;;;20.86;44.96;95666.13;4929553;29;20423;-81
2021/09/26 05:17:45;;;;;;;47.70;21.63;;;;;;;21.12;43.82;95668.56;4927469;29;20040;-82
2021/09/26 05:20:17;;;;;;;23.83;12.27;;;;;;;21.30;43.66;95669.75;4935368;29;20086;-81
2021/09/26 05:22:43;;;;;;;54.63;20.52;;;;;;;21.56;43.41;95663.97;4920215;29;20524;-82
2021/09/26 05:25:09;;;;;;;45.08;21.40;;;;;;;21.79;42.30;95672.19;4930441;29;20040;-81
2021/09/26 05:27:46;;;;;;;37.30;16.60;;;;;;;21.98;42.27;95670.41;4910724;29;20043;-81
2021/09/26 05:30:12;;;;;;;66.60;27.17;;;;;;;22.19;42.17;95662.25;4927213;29;20032;-81
2021/09/26 05:32:38;;;;;;;46.47;23.45;;;;;;;22.28;41.83;95661.31;4928521;29;20031;-81
2021/09/26 05:35:04;;;;;;;39.35;16.00;;;;;;;22.40;41.58;95666.19;4967631;23;20044;-81
2021/09/26 05:37:29;;;;;;;25.92;14.15;;;;;;;22.49;41.43;95664.50;4940315;29;20051;-80
2021/09/26 05:39:55;;;;;;;42.45;18.60;;;;;;;22.53;42.20;95673.44;4939598;29;20035;-80
2021/09/26 05:42:20;;;;;;;33.65;14.90;;;;;;;22.68;41.93;95672.44;4936813;29;20071;-79
2021/09/26 05:45:06;;;;;;;33.45;13.88;;;;;;;22.83;41.74;95668.81;4952970;29;20036;-81
2021/09/26 05:47:33;;;;;;;29.73;10.95;;;;;;;23.00;40.96;95672.53;4937516;29;20028;-81
2021/09/26 05:49:58;;;;;;;31.30;9.90;;;;;;;23.11;40.84;95672.38;4938322;29;20039;-81
2021/09/26 05:52:24;;;;;;;21.90;8.43;;;;;;;23.25;40.32;95676.63;4954366;29;20038;-81
2021/09/26 05:54:50;;;;;;;28.23;9.00;;;;;;;23.41;39.99;95673.72;5146248;23;20682;-81
2021/09/26 05:57:28;;;;;;;15.40;7.90;;;;;;;23.54;40.71;95667.66;4937801;28;20106;-80
2021/09/26 06:00:04;;;;;;;;;;;;;;;;;;;;;
2021/09/26 06:02:36;;;;;;;16.35;7.65;;;;;;;23.94;39.96;95671.47;4938100;29;20103;-82
2021/09/26 06:05:06;;;;;;;15.65;7.57;;;;;;;24.15;38.89;95675.28;4936624;29;20385;-81
2021/09/26 06:07:31;;;;;;;16.65;7.60;;;;;;;24.35;38.34;95670.69;4938201;29;20041;-81
2021/09/26 06:12:28;;;;;;;14.10;6.50;;;;;;;24.62;37.49;95657.34;4945734;23;20156;-80
2021/09/26 06:14:53;;;;;;;23.00;7.32;;;;;;;24.86;37.64;95665.03;4942187;23;20043;-80
2021/09/26 06:17:19;;;;;;;15.73;7.00;;;;;;;24.96;37.25;95664.81;4918896;29;20421;-81
2021/09/26 06:19:44;;;;;;;12.25;6.95;;;;;;;25.11;36.85;95666.34;4917051;29;20043;-82
2021/09/26 06:22:13;;;;;;;10.68;7.45;;;;;;;25.19;36.36;95668.25;4918283;29;20036;-82
2021/09/26 06:24:38;;;;;;;17.42;7.80;;;;;;;25.16;36.25;95666.22;4900685;29;20048;-79
2021/09/26 06:27:13;;;;;;;10.95;7.47;;;;;;;25.16;36.01;95662.78;4918523;29;20036;-82
2021/09/26 06:29:39;;;;;;;13.98;7.45;;;;;;;25.08;36.38;95670.41;4917959;29;20127;-81
2021/09/26 06:32:05;;;;;;;12.98;7.95;;;;;;;25.13;36.92;95667.63;4932648;29;20036;-82
2021/09/26 06:34:30;;;;;;;12.00;8.30;;;;;;;25.21;36.00;95663.41;4933710;29;20353;-81
2021/09/26 06:36:58;;;;;;;15.52;7.38;;;;;;;25.20;36.17;95666.38;4926255;29;20460;-81
2021/09/26 06:39:23;;;;;;;13.73;7.30;;;;;;;25.13;36.27;95670.28;4923299;29;20123;-81
2021/09/26 06:41:49;;;;;;;16.42;7.70;;;;;;;25.09;36.71;95669.31;4919324;29;20067;-83
2021/09/26 06:44:15;;;;;;;9.70;7.47;;;;;;;25.08;36.32;95669.63;4903381;29;20060;-80
2021/09/26 06:46:40;;;;;;;18.23;8.82;;;;;;;25.03;36.21;95675.81;4916615;29;20044;-81
2021/09/26 06:49:08;;;;;;;12.48;8.35;;;;;;;24.98;36.27;95672.47;4899223;29;20188;-80
2021/09/26 06:51:34;;;;;;;17.90;8.65;;;;;;;24.98;36.31;95673.25;4948292;23;20439;-82
2021/09/26 06:53:59;;;;;;;23.17;8.68;;;;;;;24.95;36.43;95667.75;4944933;28;20032;-82
2021/09/26 06:56:25;;;;;;;20.88;8.65;;;;;;;24.99;36.74;95663.41;4982362;23;20051;-79
2021/09/26 06:59:00;;;;;;;11.57;7.60;;;;;;;25.08;36.60;95673.06;4937922;29;20577;-79
2021/09/26 07:01:32;;;;;;;15.13;9.20;;;;;;;25.14;35.79;95671.06;4939727;29;20086;-82
2021/09/26 07:03:59;;;;;;;11.10;8.43;;;;;;;25.04;35.80;95663.31;4936858;29;20051;-80
2021/09/26 07:06:33;;;;;;;12.50;8.07;;;;;;;25.01;35.73;95666.56;4938964;29;20032;-80
2021/09/26 07:08:59;;;;;;;14.35;8.45;;;;;;;25.00;35.84;95670.31;4938915;29;20330;-81
2021/09/26 07:11:24;;;;;;;17.45;10.60;;;;;;;24.99;36.29;95669.50;4938684;29;20036;-83
2021/09/26 07:13:53;;;;;;;20.25;9.73;;;;;;;25.06;36.47;95677.91;4937939;29;20040;-80
2021/09/26 07:16:18;;;;;;;19.05;10.20;;;;;;;25.11;36.43;95677.78;4938923;29;20063;-80
2021/09/26 07:18:44;;;;;;;18.73;9.52;;;;;;;25.10;36.39;95670.88;4937717;29;20040;-81
2021/09/26 07:21:15;;;;;;;17.75;9.82;;;;;;;25.10;35.86;95672.75;4943006;23;20039;-81
2021/09/26 07:23:40;;;;;;;13.17;10.13;;;;;;;24.99;36.22;95668.72;4938948;29;20048;-80
2021/09/26 07:26:06;;;;;;;16.58;10.77;;;;;;;24.96;36.24;95659.47;4934627;29;20071;-81
2021/09/26 07:28:31;;;;;;;23.67;10.05;;;;;;;24.91;36.81;95667.59;4928094;29;20080;-84
2021/09/26 07:30:57;;;;;;;22.33;10.20;;;;;;;24.78;36.37;95665.75;4930876;29;20044;-84
2021/09/26 07:33:22;;;;;;;18.52;10.45;;;;;;;24.78;36.89;95671.06;4927399;29;20484;-82
2021/09/26 07:35:49;;;;;;;13.80;9.55;;;;;;;24.83;36.43;95671.75;4934783;29;20040;-82
2021/09/26 07:38:15;;;;;;;14.50;8.95;;;;;;;24.88;36.96;95678.81;4929831;29;20095;-83
2021/09/26 07:40:40;;;;;;;22.48;9.85;;;;;;;24.79;37.15;95675.31;4942448;29;20036;-84
2021/09/26 07:43:06;;;;;;;13.07;8.45;;;;;;;24.88;36.90;95680.69;4929074;29;20031;-83
2021/09/26 07:45:32;;;;;;;16.45;8.90;;;;;;;24.88;36.83;95678.81;4926371;29;20460;-81
2021/09/26 07:47:57;;;;;;;15.20;8.52;;;;;;;24.85;36.36;95676.75;4928304;29;20036;-84
2021/09/26 07:50:26;;;;;;;12.43;8.15;;;;;;;24.92;36.65;95679.81;4927969;29;20404;-82
2021/09/26 07:52:52;;;;;;;12.57;8.27;;;;;;;24.79;36.46;95670.00;4926547;29;20042;-81
2021/09/26 07:55:17;;;;;;;14.38;7.90;;;;;;;24.78;36.69;95673.75;4946259;29;20048;-82
2021/09/26 07:58:08;;;;;;;11.55;7.88;;;;;;;24.73;36.94;95676.50;4932535;29;20083;-81
2021/09/26 08:00:34;;;;;;;16.60;7.50;;;;;;;24.74;36.60;95678.09;4914065;29;20036;-84
2021/09/26 08:03:00;;;;;;;15.38;7.38;;;;;;;24.77;36.88;95677.50;4931731;29;20064;-86
2021/09/26 08:05:25;;;;;;;15.57;8.32;;;;;;;24.87;36.83;95677.25;4937860;29;20032;-84
2021/09/26 08:07:51;;;;;;;11.95;7.68;;;;;;;24.92;36.51;95677.13;4936766;29;20040;-85
2021/09/26 08:10:16;;;;;;;11.00;6.97;;;;;;;24.97;36.36;95676.22;4937315;29;20059;-84
2021/09/26 08:13:00;;;;;;;12.48;6.85;;;;;;;25.08;36.79;95672.28;4939520;29;20082;-85
2021/09/26 08:15:26;;;;;;;10.07;6.43;;;;;;;25.11;37.07;95675.13;4938473;29;20036;-85
2021/09/26 08:17:51;;;;;;;13.57;7.40;;;;;;;25.10;35.87;95676.22;4937851;29;20043;-84
2021/09/26 08:20:17;;;;;;;9.30;5.88;;;;;;;25.08;35.74;95678.38;4942780;29;20036;-85
2021/09/26 08:22:43;;;;;;;16.70;6.38;;;;;;;25.09;35.98;95668.53;4937765;29;20423;-83
2021/09/26 08:25:10;;;;;;;14.23;6.50;;;;;;;25.13;36.50;95664.94;4948952;29;20116;-82
2021/09/26 08:27:37;;;;;;;10.60;6.53;;;;;;;25.18;36.24;95657.94;4949488;29;20028;-82
2021/09/26 08:30:07;;;;;;;13.43;6.55;;;;;;;25.21;36.69;95658.09;4940455;29;20040;-85
2021/09/26 08:32:36;;;;;;;10.82;6.35;;;;;;;25.22;35.95;95658.88;4934745;29;20036;-84
2021/09/26 08:35:03;;;;;;;9.95;6.53;;;;;;;25.15;35.74;95661.97;4936815;29;20032;-84
2021/09/26 08:37:28;;;;;;;16.88;6.75;;;;;;;25.12;36.30;95655.41;4936269;29;20039;-84
2021/09/26 08:39:53;;;;;;;11.35;6.50;;;;;;;25.16;36.82;95654.78;4935894;29;20036;-84
2021/09/26 08:42:19;;;;;;;9.05;6.10;;;;;;;25.22;36.62;95653.56;4933051;29;20047;-85
2021/09/26 08:44:45;;;;;;;12.20;6.20;;;;;;;25.30;36.07;95652.84;4915462;29;20415;-85
2021/09/26 08:47:10;;;;;;;8.43;5.55;;;;;;;25.29;35.38;95651.28;4914902;29;20044;-84
2021/09/26 08:49:36;;;;;;;9.48;5.53;;;;;;;25.29;35.79;95648.59;4916729;29;20031;-85
2021/09/26 08:52:01;;;;;;;9.13;5.82;;;;;;;25.32;35.43;95645.34;4937043;29;20036;-83
2021/09/26 08:54:27;;;;;;;9.52;5.88;;;;;;;25.32;35.63;95645.34;4949032;29;20071;-85
2021/09/26 08:56:53;;;;;;;10.73;5.40;;;;;;;25.34;36.62;95643.16;4918094;29;20032;-85
2021/09/26 08:59:18;;;;;;;7.28;5.75;;;;;;;25.33;35.78;95646.91;4931707;29;20575;-85
2021/09/26 09:01:44;;;;;;;13.05;5.55;;;;;;;25.31;35.86;95643.75;4932952;29;20038;-85
2021/09/26 09:04:09;;;;;;;8.00;5.78;;;;;;;25.30;35.84;95637.66;4937574;29;20095;-84
2021/09/26 09:06:45;;;;;;;11.13;5.13;;;;;;;25.31;35.21;95633.09;5007793;23;20047;-84
2021/09/26 09:09:19;;;;;;;7.35;5.35;;;;;;;25.25;35.67;95624.47;4935735;29;20039;-86
2021/09/26 09:12:05;;;;;;;9.40;5.35;;;;;;;25.23;35.74;95626.66;4959417;29;20028;-84
2021/09/26 09:14:51;;;;;;;8.50;5.60;;;;;;;25.13;36.10;95625.03;4934139;29;20059;-84
2021/09/26 09:17:27;;;;;;;16.77;6.32;;;;;;;25.14;35.92;95621.28;4919531;29;20039;-84
2021/09/26 09:20:11;;;;;;;11.30;5.45;;;;;;;25.13;36.34;95633.00;4914907;29;20064;-82
2021/09/26 09:22:37;;;;;;;14.98;6.00;;;;;;;25.18;36.76;95628.66;4952829;29;20039;-84
2021/09/26 09:25:02;;;;;;;11.45;5.30;;;;;;;25.22;36.75;95634.94;4930296;29;20044;-84
2021/09/26 09:27:28;;;;;;;6.50;4.45;;;;;;;25.22;35.98;95629.59;4912856;29;20095;-83
2021/09/26 09:29:53;;;;;;;11.93;4.40;;;;;;;25.21;35.97;95630.69;4928263;29;20036;-81
2021/09/26 09:32:20;;;;;;;18.48;5.13;;;;;;;25.18;37.23;95629.44;5118093;23;20520;-82
2021/09/26 09:34:46;;;;;;;8.55;5.15;;;;;;;25.16;36.99;95620.19;4920149;29;20024;-81
2021/09/26 09:37:21;;;;;;;14.52;5.18;;;;;;;25.12;37.29;95626.13;4901965;29;20035;-82
2021/09/26 09:40:09;;;;;;;6.13;5.20;;;;;;;25.07;36.84;95618.28;4920067;29;20064;-82
2021/09/26 09:42:39;;;;;;;10.82;5.25;;;;;;;25.06;36.72;95624.69;4920392;29;20667;-81
2021/09/26 09:45:18;;;;;;;5.72;5.07;;;;;;;25.06;36.95;95611.38;4921491;29;20048;-83
2021/09/26 09:48:08;;;;;;;9.43;5.97;;;;;;;25.09;37.37;95608.09;4920548;29;20043;-82
2021/09/26 09:50:54;;;;;;;10.32;5.22;;;;;;;25.09;37.21;95605.44;4903983;29;20043;-82
2021/09/26 09:53:38;;;;;;;10.20;5.18;;;;;;;25.11;37.59;95603.25;4921341;29;20625;-81
2021/09/26 09:56:09;;;;;;;15.15;4.65;;;;;;;25.16;37.45;95604.22;4923798;29;20032;-81
2021/09/26 09:58:48;;;;;;;9.53;5.07;;;;;;;25.21;37.58;95601.41;4924072;29;20039;-81
2021/09/26 10:01:23;;;;;;;5.30;4.70;;;;;;;25.24;37.25;95601.63;4920870;29;20036;-82
2021/09/26 10:03:53;;;;;;;7.18;4.45;;;;;;;25.28;36.97;95596.47;4921389;29;20042;-82
2021/09/26 10:06:38;;;;;;;15.50;5.30;;;;;;;25.27;37.42;95593.00;4920093;29;20468;-81
2021/09/26 10:09:20;;;;;;;8.93;4.85;;;;;;;25.30;36.68;95592.41;4921581;29;20040;-82
2021/09/26 10:11:56;;;;;;;6.72;5.00;;;;;;;25.31;36.72;95585.19;4920686;29;20035;-81
2021/09/26 10:14:24;;;;;;;11.38;5.32;;;;;;;25.31;36.85;95579.88;4904346;29;20472;-81
2021/09/26 10:16:50;;;;;;;8.57;5.18;;;;;;;25.33;36.36;95583.00;4915577;29;20028;-84
2021/09/26 10:19:21;;;;;;;6.30;4.55;;;;;;;25.28;36.37;95575.16;4933429;29;20046;-83
2021/09/26 10:21:47;;;;;;;8.90;5.10;;;;;;;25.28;36.20;95570.63;4904064;29;20036;-84
2021/09/26 10:24:12;;;;;;;10.45;5.10;;;;;;;25.32;36.82;95573.44;4887412;29;20285;-84
2021/09/26 10:26:38;;;;;;;14.95;5.70;;;;;;;25.33;36.54;95569.69;4919177;29;20084;-84
2021/09/26 10:29:04;;;;;;;9.75;4.55;;;;;;;25.35;36.48;95559.50;4917879;29;20040;-88
2021/09/26 10:31:29;;;;;;;7.18;4.57;;;;;;;25.40;36.36;95556.75;4934498;29;20094;-85
2021/09/26 10:33:56;;;;;;;8.02;4.40;;;;;;;25.44;36.20;95545.16;4911303;29;20058;-86
2021/09/26 10:36:22;;;;;;;15.38;4.10;;;;;;;25.49;36.00;95544.22;4926587;29;20047;-83
2021/09/26 10:38:49;;;;;;;10.55;4.40;;;;;;;25.53;34.75;95547.84;4942476;29;20032;-86
2021/09/26 10:41:14;;;;;;;13.27;3.85;;;;;;;25.47;34.35;95546.41;4926716;29;20052;-87
2021/09/26 10:43:42;;;;;;;7.60;4.00;;;;;;;25.14;34.80;95543.31;4935487;29;20032;-86
2021/09/26 10:46:23;;;;;;;7.20;3.70;;;;;;;25.19;34.73;95545.81;4914808;29;20032;-85
2021/09/26 10:49:10;;;;;;;11.52;4.30;;;;;;;25.23;34.12;95535.38;4927852;29;20036;-85
2021/09/26 10:51:43;;;;;;;6.90;3.83;;;;;;;25.16;33.55;95530.47;4905009;29;20048;-77
2021/09/26 10:54:30;;;;;;;7.38;3.40;;;;;;;25.08;32.38;95528.56;4915213;29;20032;-79
2021/09/26 10:57:08;;;;;;;3.35;3.05;;;;;;;24.93;32.56;95532.38;4929875;29;20044;-87
2021/09/26 10:59:43;;;;;;;6.03;3.65;;;;;;;24.95;32.98;95524.88;4928739;29;20035;-85
2021/09/26 11:02:35;;;;;;;4.45;3.85;;;;;;;25.00;32.71;95516.00;4909867;29;20028;-85
2021/09/26 11:05:02;;;;;;;;;;;;;;;25.01;32.84;95513.03;4918353;29;20103;-85
2021/09/26 11:07:30;;;;;;;16.48;3.80;;;;;;;25.03;42.04;95513.50;4920461;29;20009;-74
2021/09/26 11:09:57;;;;;;;25.35;10.73;;;;;;;25.01;33.71;95507.69;4935851;29;20040;-81
2021/09/26 11:12:39;;;;;;;11.02;4.50;;;;;;;25.06;34.30;95496.94;4923341;29;20111;-80
2021/09/26 11:15:12;;;;;;;8.68;4.50;;;;;;;25.07;33.14;95506.50;4921036;29;20028;-78
2021/09/26 11:17:45;;;;;;;20.45;5.32;;;;;;;25.09;35.40;95495.53;4919165;29;20136;-77
2021/09/26 11:20:12;;;;;;;14.95;5.10;;;;;;;25.11;35.26;95501.34;4925011;29;20069;-79
2021/09/26 11:22:37;;;;;;;24.45;4.57;;;;;;;25.13;36.10;95488.50;4925828;29;20115;-79
2021/09/26 11:25:03;;;;;;;14.70;4.20;;;;;;;25.13;35.43;95489.28;4938553;29;20032;-83
2021/09/26 11:27:37;;;;;;;10.77;4.30;;;;;;;25.14;38.51;95490.06;4922345;29;20043;-83
2021/09/26 11:30:05;;;;;;;13.52;3.95;;;;;;;25.01;34.28;95489.06;4920536;29;20051;-83
2021/09/26 11:32:33;;;;;;;6.30;3.90;;;;;;;24.97;33.27;95485.44;4938694;29;20036;-83
2021/09/26 11:35:04;;;;;;;4.45;3.42;;;;;;;24.96;33.49;95477.75;4922557;29;20040;-83
2021/09/26 11:37:35;;;;;;;7.07;3.80;;;;;;;24.90;33.16;95479.78;4928669;29;20032;-83
2021/09/26 11:40:02;;;;;;;7.28;3.85;;;;;;;24.94;34.07;95475.41;4925515;29;20801;-83
2021/09/26 11:42:38;;;;;;;9.68;4.22;;;;;;;24.88;33.52;95465.97;4915315;29;20072;-83
2021/09/26 11:45:09;;;;;;;6.63;3.90;;;;;;;24.87;33.81;95475.03;4918993;29;20043;-83